Observation data for Denver City on 02/15/2017      Previous  Date  Next       Current Mesonet Observations  Soil Data  Daily Summary Page  Observations in Plain Language
KDVS 150600Z 29007KT M00/M03 A3022 RMK A01 T10041029  RH  084%=      5-min Rain = 0
KDVS 150605Z 30007KT M01/M03 A3022 RMK A01 T10061029  RH  085%=      5-min Rain = 0
KDVS 150610Z 30008KT M01/M03 A3022 RMK A01 T10071030  RH  085%=      5-min Rain = 0
KDVS 150615Z 30008KT M01/M03 A3022 RMK A01 T10081030  RH  085%=      5-min Rain = 0
KDVS 150620Z 30009KT M01/M03 A3022 RMK A01 T10071030  RH  085%=      5-min Rain = 0
KDVS 150625Z 30009KT M01/M03 A3021 RMK A01 T10061031  RH  084%=      5-min Rain = 0
KDVS 150630Z 30009KT M01/M03 A3021 RMK A01 T10051031  RH  083%=      5-min Rain = 0
KDVS 150635Z 31009KT M00/M03 A3021 RMK A01 T10041033  RH  081%=      5-min Rain = 0
KDVS 150640Z 30010KT M00/M03 A3021 RMK A01 T10031034  RH  080%=      5-min Rain = 0
KDVS 150645Z 31010KT M00/M03 A3021 RMK A01 T10021034  RH  080%=      5-min Rain = 0
KDVS 150650Z 31010KT M00/M03 A3021 RMK A01 T10021034  RH  080%=      5-min Rain = 0
KDVS 150655Z 31010KT M00/M03 A3021 RMK A01 T10011034  RH  079%=      5-min Rain = 0
KDVS 150700Z 31010KT 00/03 A3021 RMK A01 T00000-34  RH  078%=      5-min Rain = 0
KDVS 150705Z 31010KT 00/03 A3021 RMK A01 T00000-33  RH  079%=      5-min Rain = 0
KDVS 150710Z 31011KT 00/M03 A3021 RMK A01 T00021032  RH  078%=      5-min Rain = 0
KDVS 150715Z 31011KT 00/M03 A3021 RMK A01 T00021032  RH  079%=      5-min Rain = 0
KDVS 150720Z 31011KT 00/M03 A3021 RMK A01 T00031031  RH  078%=      5-min Rain = 0
KDVS 150725Z 31011KT 00/M03 A3021 RMK A01 T00031031  RH  078%=      5-min Rain = 0
KDVS 150730Z 31011KT 00/M03 A3021 RMK A01 T00021032  RH  078%=      5-min Rain = 0
KDVS 150735Z 31011KT 00/M03 A3021 RMK A01 T00031032  RH  078%=      5-min Rain = 0
KDVS 150740Z 31011KT 00/M03 A3021 RMK A01 T00041032  RH  078%=      5-min Rain = 0
KDVS 150745Z 31011KT 00/M03 A3021 RMK A01 T00041032  RH  078%=      5-min Rain = 0
KDVS 150750Z 32010KT 00/M03 A3021 RMK A01 T00021031  RH  079%=      5-min Rain = 0
KDVS 150755Z 31010KT 00/M03 A3021 RMK A01 T00011031  RH  080%=      5-min Rain = 0
KDVS 150800Z 31010KT 00/M03 A3021 RMK A01 T00011031  RH  080%=      5-min Rain = 0
KDVS 150805Z 31010KT 00/M03 A3021 RMK A01 T00011031  RH  079%=      5-min Rain = 0
KDVS 150810Z 31009KT 00/M03 A3021 RMK A01 T00021031  RH  079%=      5-min Rain = 0
KDVS 150815Z 31009KT 00/M03 A3021 RMK A01 T00021031  RH  079%=      5-min Rain = 0
KDVS 150820Z 30009KT 00/03 A3021 RMK A01 T00000-31  RH  080%=      5-min Rain = 0
KDVS 150825Z 30009KT 00/03 A3021 RMK A01 T00-00-31  RH  080%=      5-min Rain = 0
KDVS 150830Z 30009KT M00/M03 A3021 RMK A01 T10021031  RH  081%=      5-min Rain = 0
KDVS 150835Z 30008KT M00/M03 A3021 RMK A01 T10041031  RH  082%=      5-min Rain = 0
KDVS 150840Z 30009KT M01/M03 A3021 RMK A01 T10051032  RH  083%=      5-min Rain = 0
KDVS 150845Z 30009KT M01/M03 A3021 RMK A01 T10051031  RH  083%=      5-min Rain = 0
KDVS 150850Z 30009KT M01/M03 A3021 RMK A01 T10061031  RH  083%=      5-min Rain = 0
KDVS 150855Z 30009KT M01/M03 A3021 RMK A01 T10061031  RH  083%=      5-min Rain = 0
KDVS 150900Z 30009KT M01/M03 A3021 RMK A01 T10061031  RH  084%=      5-min Rain = 0
KDVS 150905Z 30009KT M01/M03 A3021 RMK A01 T10071032  RH  084%=      5-min Rain = 0
KDVS 150910Z 30009KT M01/M03 A3022 RMK A01 T10071032  RH  084%=      5-min Rain = 0
KDVS 150915Z 29008KT M01/M03 A3022 RMK A01 T10081032  RH  084%=      5-min Rain = 0
KDVS 150920Z 30008KT M01/M03 A3021 RMK A01 T10091032  RH  085%=      5-min Rain = 0
KDVS 150925Z 30009KT M01/M03 A3021 RMK A01 T10081032  RH  084%=      5-min Rain = 0
KDVS 150930Z 30009KT M01/M03 A3022 RMK A01 T10071032  RH  083%=      5-min Rain = 0
KDVS 150935Z 30009KT M01/M03 A3022 RMK A01 T10061033  RH  082%=      5-min Rain = 0
KDVS 150940Z 30008KT M01/M03 A3022 RMK A01 T10051033  RH  082%=      5-min Rain = 0
KDVS 150945Z 30008KT M01/M03 A3022 RMK A01 T10051033  RH  082%=      5-min Rain = 0
KDVS 150950Z 31008KT M00/M03 A3022 RMK A01 T10041034  RH  081%=      5-min Rain = 0
KDVS 150955Z 31008KT M00/M03 A3022 RMK A01 T10041034  RH  081%=      5-min Rain = 0
KDVS 151000Z 31008KT M00/M03 A3022 RMK A01 T10041034  RH  080%=      5-min Rain = 0
KDVS 151005Z 31009KT M01/M03 A3022 RMK A01 T10051034  RH  081%=      5-min Rain = 0
KDVS 151010Z 31010KT M01/M04 A3022 RMK A01 T10051035  RH  081%=      5-min Rain = 0
KDVS 151015Z 31010KT M01/M03 A3022 RMK A01 T10051034  RH  081%=      5-min Rain = 0
KDVS 151020Z 30008KT M01/M03 A3022 RMK A01 T10051033  RH  082%=      5-min Rain = 0
KDVS 151025Z 30009KT M01/M03 A3022 RMK A01 T10061033  RH  083%=      5-min Rain = 0
KDVS 151030Z 30009KT M01/M03 A3022 RMK A01 T10071032  RH  083%=      5-min Rain = 0
KDVS 151035Z 29009KT M01/M03 A3022 RMK A01 T10071032  RH  084%=      5-min Rain = 0
KDVS 151040Z 29010KT M01/M03 A3022 RMK A01 T10061032  RH  084%=      5-min Rain = 0
KDVS 151045Z 29011KT M01/M03 A3022 RMK A01 T10061032  RH  083%=      5-min Rain = 0
KDVS 151050Z 29010KT M01/M03 A3022 RMK A01 T10071032  RH  084%=      5-min Rain = 0
KDVS 151055Z 29009KT M01/M03 A3022 RMK A01 T10091032  RH  085%=      5-min Rain = 0
KDVS 151100Z 29009KT M01/M03 A3022 RMK A01 T10101032  RH  086%=      5-min Rain = 0
KDVS 151105Z 29009KT M01/M03 A3022 RMK A01 T10111032  RH  086%=      5-min Rain = 0
KDVS 151110Z 29010KT M01/M03 A3023 RMK A01 T10111032  RH  086%=      5-min Rain = 0
KDVS 151115Z 30010KT M01/M03 A3022 RMK A01 T10111032  RH  086%=      5-min Rain = 0
KDVS 151120Z 30010KT M01/M03 A3022 RMK A01 T10101031  RH  086%=      5-min Rain = 0
KDVS 151125Z 30011KT M01/M03 A3022 RMK A01 T10101031  RH  086%=      5-min Rain = 0
KDVS 151130Z 30010KT M01/M03 A3022 RMK A01 T10101031  RH  086%=      5-min Rain = 0
KDVS 151135Z 30011KT M01/M03 A3022 RMK A01 T10101030  RH  087%=      5-min Rain = 0
KDVS 151140Z 30011KT M01/M03 A3022 RMK A01 T10091030  RH  087%=      5-min Rain = 0
KDVS 151145Z 30011KT M01/M03 A3022 RMK A01 T10091029  RH  087%=      5-min Rain = 0
KDVS 151150Z 30011KT M01/M03 A3022 RMK A01 T10091029  RH  087%=      5-min Rain = 0
KDVS 151155Z 30011KT M01/M03 A3022 RMK A01 T10091029  RH  087%=      5-min Rain = 0
KDVS 151200Z 30011KT M01/M03 A3022 RMK A01 T10091029  RH  087%=      5-min Rain = 0
KDVS 151205Z 30010KT M01/M03 A3022 RMK A01 T10091030  RH  087%=      5-min Rain = 0
KDVS 151210Z 30010KT M01/M03 A3022 RMK A01 T10101030  RH  087%=      5-min Rain = 0
KDVS 151215Z 30010KT M01/M03 A3022 RMK A01 T10101031  RH  087%=      5-min Rain = 0
KDVS 151220Z 30010KT M01/M03 A3022 RMK A01 T10101030  RH  087%=      5-min Rain = 0
KDVS 151225Z 30010KT M01/M03 A3022 RMK A01 T10091030  RH  086%=      5-min Rain = 0
KDVS 151230Z 31010KT M01/M03 A3022 RMK A01 T10091031  RH  086%=      5-min Rain = 0
KDVS 151235Z 30010KT M01/M03 A3022 RMK A01 T10091031  RH  086%=      5-min Rain = 0
KDVS 151240Z 30010KT M01/M03 A3022 RMK A01 T10091031  RH  085%=      5-min Rain = 0
KDVS 151245Z 30010KT M01/M03 A3022 RMK A01 T10091032  RH  085%=      5-min Rain = 0
KDVS 151250Z 30010KT M01/M03 A3023 RMK A01 T10101032  RH  085%=      5-min Rain = 0
KDVS 151255Z 30010KT M01/M03 A3023 RMK A01 T10111032  RH  086%=      5-min Rain = 0
KDVS 151300Z 30010KT M01/M03 A3023 RMK A01 T10111033  RH  086%=      5-min Rain = 0
KDVS 151305Z 31010KT M01/M03 A3023 RMK A01 T10111033  RH  085%=      5-min Rain = 0
KDVS 151310Z 30010KT M01/M03 A3023 RMK A01 T10111034  RH  085%=      5-min Rain = 0
KDVS 151315Z 31010KT M01/M03 A3023 RMK A01 T10111034  RH  085%=      5-min Rain = 0
KDVS 151320Z 31009KT M01/M04 A3023 RMK A01 T10111035  RH  085%=      5-min Rain = 0
KDVS 151325Z 31009KT M01/M04 A3023 RMK A01 T10121035  RH  085%=      5-min Rain = 0
KDVS 151330Z 31009KT M01/M04 A3024 RMK A01 T10121035  RH  085%=      5-min Rain = 0
KDVS 151335Z 31009KT M01/M04 A3024 RMK A01 T10121035  RH  085%=      5-min Rain = 0
KDVS 151340Z 31009KT M01/M04 A3024 RMK A01 T10131036  RH  085%=      5-min Rain = 0
KDVS 151345Z 31010KT M01/M04 A3024 RMK A01 T10121036  RH  084%=      5-min Rain = 0
KDVS 151350Z 32009KT M01/M04 A3024 RMK A01 T10111036  RH  084%=      5-min Rain = 0
KDVS 151355Z 32010KT M01/M04 A3024 RMK A01 T10091036  RH  082%=      5-min Rain = 0
KDVS 151400Z 32010KT M01/M04 A3025 RMK A01 T10071036  RH  081%=      5-min Rain = 0
KDVS 151405Z 32010KT M00/M04 A3025 RMK A01 T10041036  RH  079%=      5-min Rain = 0
KDVS 151410Z 32011KT M00/M04 A3025 RMK A01 T10011037  RH  077%=      5-min Rain = 0
KDVS 151415Z 32010KT 00/M04 A3025 RMK A01 T00011037  RH  076%=      5-min Rain = 0
KDVS 151420Z 32010KT 00/M04 A3025 RMK A01 T00031036  RH  075%=      5-min Rain = 0
KDVS 151425Z 33009KT 01/M04 A3026 RMK A01 T00051035  RH  075%=      5-min Rain = 0
KDVS 151430Z 33010KT 01/M04 A3026 RMK A01 T00071035  RH  074%=      5-min Rain = 0
KDVS 151435Z 33010KT 01/M04 A3026 RMK A01 T00101035  RH  072%=      5-min Rain = 0
KDVS 151440Z 33010KT 01/M04 A3026 RMK A01 T00121035  RH  071%=      5-min Rain = 0
KDVS 151445Z 33009KT 01/M03 A3027 RMK A01 T00141034  RH  071%=      5-min Rain = 0
KDVS 151450Z 33011KT 02/M04 A3027 RMK A01 T00171035  RH  069%=      5-min Rain = 0
KDVS 151455Z 33010KT 02/M03 A3027 RMK A01 T00201034  RH  068%=      5-min Rain = 0
KDVS 151500Z 33010KT 02/M03 A3027 RMK A01 T00221034  RH  067%=      5-min Rain = 0
KDVS 151505Z 33009KT 02/M03 A3027 RMK A01 T00241033  RH  066%=      5-min Rain = 0
KDVS 151510Z 33010KT 03/M03 A3027 RMK A01 T00261033  RH  065%=      5-min Rain = 0
KDVS 151515Z 34009KT 03/M03 A3027 RMK A01 T00301032  RH  064%=      5-min Rain = 0
KDVS 151520Z 34009KT 03/M03 A3028 RMK A01 T00341031  RH  063%=      5-min Rain = 0
KDVS 151525Z 34008KT 04/M03 A3028 RMK A01 T00371030  RH  062%=      5-min Rain = 0
KDVS 151530Z 34009KT 04/M03 A3028 RMK A01 T00401030  RH  061%=      5-min Rain = 0
KDVS 151535Z 34009KT 04/M03 A3028 RMK A01 T00421030  RH  060%=      5-min Rain = 0
KDVS 151540Z 34010KT 05/M03 A3028 RMK A01 T00451030  RH  059%=      5-min Rain = 0
KDVS 151545Z 34008KT 05/M03 A3028 RMK A01 T00481028  RH  058%=      5-min Rain = 0
KDVS 151550Z 34009KT 05/M03 A3028 RMK A01 T00511029  RH  057%=      5-min Rain = 0
KDVS 151555Z 35008KT 06/M03 A3028 RMK A01 T00561027  RH  056%=      5-min Rain = 0
KDVS 151600Z 34007KT 06/M03 A3028 RMK A01 T00591025  RH  055%=      5-min Rain = 0
KDVS 151605Z 34009KT 06/M03 A3028 RMK A01 T00621029  RH  053%=      5-min Rain = 0
KDVS 151610Z 35009KT 06/M03 A3028 RMK A01 T00641029  RH  051%=      5-min Rain = 0
KDVS 151615Z 35009KT 07/M03 A3028 RMK A01 T00671032  RH  049%=      5-min Rain = 0
KDVS 151620Z 35009KT 07/M03 A3028 RMK A01 T00701033  RH  048%=      5-min Rain = 0
KDVS 151625Z 34008KT 07/M03 A3028 RMK A01 T00711029  RH  049%=      5-min Rain = 0
KDVS 151630Z 35008KT 07/M03 A3028 RMK A01 T00741027  RH  049%=      5-min Rain = 0
KDVS 151635Z 35008KT 08/M03 A3028 RMK A01 T00761028  RH  048%=      5-min Rain = 0
KDVS 151640Z 35008KT 08/M03 A3028 RMK A01 T00801028  RH  047%=      5-min Rain = 0
KDVS 151645Z 36008KT 08/M03 A3028 RMK A01 T00821034  RH  044%=      5-min Rain = 0
KDVS 151650Z 35007KT 08/M03 A3028 RMK A01 T00831033  RH  044%=      5-min Rain = 0
KDVS 151655Z 36007KT 09/M04 A3028 RMK A01 T00851036  RH  042%=      5-min Rain = 0
KDVS 151700Z 35007KT 09/M04 A3028 RMK A01 T00881040  RH  040%=      5-min Rain = 0
KDVS 151705Z 36007KT 09/M04 A3028 RMK A01 T00891041  RH  040%=      5-min Rain = 0
KDVS 151710Z 34008KT 09/M05 A3028 RMK A01 T00911046  RH  038%=      5-min Rain = 0
KDVS 151715Z 36007KT 09/M05 A3028 RMK A01 T00911045  RH  038%=      5-min Rain = 0
KDVS 151720Z 35006KT 09/M05 A3028 RMK A01 T00931046  RH  037%=      5-min Rain = 0
KDVS 151725Z 35006G11KT 10/M05 A3028 RMK A01 T00961049  RH  036%=      5-min Rain = 0
KDVS 151730Z 36008G13KT 10/M06 A3028 RMK A01 T00971056  RH  034%=      5-min Rain = 0
KDVS 151735Z 00008KT 10/M06 A3028 RMK A01 T00961055  RH  034%=      5-min Rain = 0
KDVS 151740Z 00007KT 10/M06 A3028 RMK A01 T00961056  RH  034%=      5-min Rain = 0
KDVS 151745Z 00006G11KT 10/M06 A3027 RMK A01 T00961055  RH  034%=      5-min Rain = 0
KDVS 151750Z 34009G15KT 10/M05 A3027 RMK A01 T00951050  RH  036%=      5-min Rain = 0
KDVS 151755Z 36007G12KT 10/M05 A3027 RMK A01 T00971052  RH  035%=      5-min Rain = 0
KDVS 151800Z 00006G11KT 10/M05 A3027 RMK A01 T00981052  RH  034%=      5-min Rain = 0
KDVS 151805Z 01008G14KT 10/M05 A3027 RMK A01 T01001050  RH  035%=      5-min Rain = 0
KDVS 151810Z 02004KT 10/M05 A3026 RMK A01 T01021054  RH  033%=      5-min Rain = 0
KDVS 151815Z 35007KT 10/M05 A3026 RMK A01 T01031050  RH  034%=      5-min Rain = 0
KDVS 151820Z 01006G11KT 10/M05 A3026 RMK A01 T01031054  RH  033%=      5-min Rain = 0
KDVS 151825Z 03007G12KT 10/M05 A3026 RMK A01 T01041052  RH  033%=      5-min Rain = 0
KDVS 151830Z 02004KT 10/M05 A3025 RMK A01 T01031052  RH  033%=      5-min Rain = 0
KDVS 151835Z 00008KT 11/M05 A3025 RMK A01 T01051048  RH  034%=      5-min Rain = 0
KDVS 151840Z 35006G11KT 10/M06 A3025 RMK A01 T01021056  RH  032%=      5-min Rain = 0
KDVS 151845Z 00007KT 10/M05 A3025 RMK A01 T01031051  RH  033%=      5-min Rain = 0
KDVS 151850Z 35007G12KT 11/M05 A3025 RMK A01 T01051051  RH  033%=      5-min Rain = 0
KDVS 151855Z 35008KT 11/M05 A3024 RMK A01 T01071046  RH  034%=      5-min Rain = 0
KDVS 151900Z 34006G13KT 11/M04 A3024 RMK A01 T01091043  RH  034%=      5-min Rain = 0
KDVS 151905Z 03009KT 11/M05 A3024 RMK A01 T01111045  RH  033%=      5-min Rain = 0
KDVS 151910Z 03007KT 11/M05 A3024 RMK A01 T01101047  RH  033%=      5-min Rain = 0
KDVS 151915Z 34006KT 11/M05 A3023 RMK A01 T01091045  RH  034%=      5-min Rain = 0
KDVS 151920Z 33008G13KT 11/M05 A3023 RMK A01 T01081047  RH  034%=      5-min Rain = 0
KDVS 151925Z 00007G12KT 11/M05 A3023 RMK A01 T01081047  RH  033%=      5-min Rain = 0
KDVS 151930Z 34008KT 11/M05 A3023 RMK A01 T01091046  RH  034%=      5-min Rain = 0
KDVS 151935Z 01008KT 11/M05 A3022 RMK A01 T01101047  RH  033%=      5-min Rain = 0
KDVS 151940Z 36008KT 11/M05 A3022 RMK A01 T01101051  RH  032%=      5-min Rain = 0
KDVS 151945Z 01007G13KT 11/M05 A3022 RMK A01 T01111049  RH  032%=      5-min Rain = 0
KDVS 151950Z 03002KT 11/M05 A3022 RMK A01 T01121054  RH  031%=      5-min Rain = 0
KDVS 151955Z 35007KT 11/M05 A3021 RMK A01 T01141048  RH  032%=      5-min Rain = 0
KDVS 152000Z 34008KT 12/M05 A3021 RMK A01 T01151046  RH  032%=      5-min Rain = 0
KDVS 152005Z 35006KT 11/M05 A3021 RMK A01 T01131052  RH  031%=      5-min Rain = 0
KDVS 152010Z 31004KT 11/M05 A3021 RMK A01 T01121053  RH  031%=      5-min Rain = 0
KDVS 152015Z 00008KT 11/M05 A302 RMK A01 T01141051  RH  031%=      5-min Rain = 0
KDVS 152020Z 35006KT 12/M05 A302 RMK A01 T01151053  RH  031%=      5-min Rain = 0
KDVS 152025Z 35004KT 11/M05 A302 RMK A01 T01141052  RH  031%=      5-min Rain = 0
KDVS 152030Z 31004KT 12/M05 A302 RMK A01 T01171050  RH  031%=      5-min Rain = 0
KDVS 152035Z 34002KT 12/M05 A302 RMK A01 T01151048  RH  032%=      5-min Rain = 0
KDVS 152040Z 01006KT 12/M05 A3019 RMK A01 T01191048  RH  031%=      5-min Rain = 0
KDVS 152045Z 02007KT 12/M05 A3019 RMK A01 T01171049  RH  031%=      5-min Rain = 0
KDVS 152050Z 33008G13KT 12/M05 A3019 RMK A01 T01191049  RH  031%=      5-min Rain = 0
KDVS 152055Z 30005KT 12/M06 A3019 RMK A01 T01191055  RH  029%=      5-min Rain = 0
KDVS 152100Z 31007KT 12/M05 A3019 RMK A01 T01201050  RH  030%=      5-min Rain = 0
KDVS 152105Z 30004KT 12/M05 A3018 RMK A01 T01191052  RH  030%=      5-min Rain = 0
KDVS 152110Z 18001KT 12/M06 A3018 RMK A01 T01191059  RH  028%=      5-min Rain = 0
KDVS 152115Z 32003G9KT 12/M06 A3018 RMK A01 T01221055  RH  029%=      5-min Rain = 0
KDVS 152120Z 30004KT 12/M06 A3018 RMK A01 T01211056  RH  029%=      5-min Rain = 0
KDVS 152125Z 27003KT 12/M06 A3018 RMK A01 T01211056  RH  028%=      5-min Rain = 0
KDVS 152130Z 28005KT 12/M05 A3018 RMK A01 T01231052  RH  029%=      5-min Rain = 0
KDVS 152135Z 31007KT 12/M05 A3017 RMK A01 T01241048  RH  030%=      5-min Rain = 0
KDVS 152140Z 33005KT 12/M06 A3017 RMK A01 T01211057  RH  028%=      5-min Rain = 0
KDVS 152145Z 15002KT 12/M06 A3017 RMK A01 T01221055  RH  029%=      5-min Rain = 0
KDVS 152150Z 26002KT 13/M06 A3017 RMK A01 T01261055  RH  028%=      5-min Rain = 0
KDVS 152155Z 24003KT 13/M05 A3017 RMK A01 T01281052  RH  028%=      5-min Rain = 0
KDVS 152200Z 25002KT 13/M05 A3017 RMK A01 T01291051  RH  028%=      5-min Rain = 0
KDVS 152205Z 31006KT 13/M05 A3016 RMK A01 T01281054  RH  028%=      5-min Rain = 0
KDVS 152210Z 32003KT 13/M06 A3016 RMK A01 T01281055  RH  028%=      5-min Rain = 0
KDVS 152215Z 04001KT 13/M06 A3016 RMK A01 T01261057  RH  027%=      5-min Rain = 0
KDVS 152220Z 24003KT 13/M05 A3016 RMK A01 T01281054  RH  028%=      5-min Rain = 0
KDVS 152225Z 26002KT 13/M06 A3016 RMK A01 T01271055  RH  028%=      5-min Rain = 0
KDVS 152230Z 31002G7KT 13/M05 A3016 RMK A01 T01331053  RH  027%=      5-min Rain = 0
KDVS 152235Z 32007KT 13/M06 A3016 RMK A01 T01291055  RH  027%=      5-min Rain = 0
KDVS 152240Z 34003KT 13/M06 A3015 RMK A01 T01261058  RH  027%=      5-min Rain = 0
KDVS 152245Z 31003KT 13/M05 A3015 RMK A01 T01271054  RH  028%=      5-min Rain = 0
KDVS 152250Z 33004KT 13/M06 A3015 RMK A01 T01281055  RH  028%=      5-min Rain = 0
KDVS 152255Z 00004KT 13/M05 A3015 RMK A01 T01281054  RH  028%=      5-min Rain = 0
KDVS 152300Z 25002KT 13/M06 A3015 RMK A01 T01301057  RH  027%=      5-min Rain = 0
KDVS 152305Z 31003KT 13/M05 A3015 RMK A01 T01301054  RH  027%=      5-min Rain = 0
KDVS 152310Z 29004KT 13/M05 A3015 RMK A01 T01291054  RH  027%=      5-min Rain = 0
KDVS 152315Z 28006KT 13/M05 A3015 RMK A01 T01281053  RH  028%=      5-min Rain = 0
KDVS 152320Z 25004KT 13/M06 A3015 RMK A01 T01251057  RH  028%=      5-min Rain = 0
KDVS 152325Z 26003KT 13/M06 A3015 RMK A01 T01271056  RH  028%=      5-min Rain = 0
KDVS 152330Z 26004KT 13/M06 A3015 RMK A01 T01261056  RH  028%=      5-min Rain = 0
KDVS 152335Z 27003KT 13/M06 A3015 RMK A01 T01261057  RH  028%=      5-min Rain = 0
KDVS 152340Z 27002KT 13/M06 A3015 RMK A01 T01271058  RH  027%=      5-min Rain = 0
KDVS 152345Z 30003KT 13/M06 A3015 RMK A01 T01271055  RH  028%=      5-min Rain = 0
KDVS 152350Z 30002KT 13/M06 A3014 RMK A01 T01261058  RH  027%=      5-min Rain = 0
KDVS 152355Z 24002KT 13/M05 A3014 RMK A01 T01271054  RH  028%=      5-min Rain = 0
KDVS 160000Z 24002KT 13/M05 A3014 RMK A01 T01251053  RH  028%=      5-min Rain = 0
KDVS 160005Z 23002KT 13/M05 A3014 RMK A01 T01261048  RH  030%=      5-min Rain = 0
KDVS 160010Z 23002KT 12/M05 A3014 RMK A01 T01241045  RH  031%=      5-min Rain = 0
KDVS 160015Z 23001KT 12/M05 A3014 RMK A01 T01231048  RH  030%=      5-min Rain = 0
KDVS 160020Z 25001KT 12/M05 A3014 RMK A01 T01221049  RH  030%=      5-min Rain = 0
KDVS 160025Z 24002KT 12/M04 A3014 RMK A01 T01191035  RH  034%=      5-min Rain = 0
KDVS 160030Z 25002KT 12/M03 A3014 RMK A01 T01161028  RH  037%=      5-min Rain = 0
KDVS 160035Z 26002KT 11/M02 A3014 RMK A01 T01121020  RH  040%=      5-min Rain = 0
KDVS 160040Z 27002KT 11/M02 A3014 RMK A01 T01061015  RH  043%=      5-min Rain = 0
KDVS 160045Z 28001KT 10/M01 A3014 RMK A01 T01021013  RH  045%=      5-min Rain = 0
KDVS 160050Z 30001KT 10/M02 A3014 RMK A01 T00981016  RH  045%=      5-min Rain = 0
KDVS 160055Z 25002KT 10/M03 A3014 RMK A01 T00951028  RH  042%=      5-min Rain = 0
KDVS 160100Z 25004KT 09/M02 A3014 RMK A01 T00941024  RH  044%=      5-min Rain = 0
KDVS 160105Z 24003KT 09/M01 A3014 RMK A01 T00911012  RH  049%=      5-min Rain = 0
KDVS 160110Z 24003KT 09/M02 A3014 RMK A01 T00891015  RH  049%=      5-min Rain = 0
KDVS 160115Z 22004KT 09/M01 A3014 RMK A01 T00871010  RH  051%=      5-min Rain = 0
KDVS 160120Z 22005KT 08/M01 A3014 RMK A01 T00831005  RH  055%=      5-min Rain = 0
KDVS 160125Z 23004KT 08/00 A3014 RMK A01 T007900-0  RH  058%=      5-min Rain = 0
KDVS 160130Z 22004KT 08/00 A3014 RMK A01 T00760003  RH  061%=      5-min Rain = 0
KDVS 160135Z 21005KT 07/00 A3014 RMK A01 T00740002  RH  061%=      5-min Rain = 0
KDVS 160140Z 21005KT 07/M00 A3014 RMK A01 T00741004  RH  058%=      5-min Rain = 0
KDVS 160145Z 21005KT 07/00 A3014 RMK A01 T007300-0  RH  060%=      5-min Rain = 0
KDVS 160150Z 21004KT 07/M00 A3014 RMK A01 T00711002  RH  060%=      5-min Rain = 0
KDVS 160155Z 21005KT 07/M00 A3014 RMK A01 T00701002  RH  061%=      5-min Rain = 0
KDVS 160200Z 20006KT 07/00 A3014 RMK A01 T00660002  RH  064%=      5-min Rain = 0
KDVS 160205Z 20006KT 06/M00 A3014 RMK A01 T00611001  RH  065%=      5-min Rain = 0
KDVS 160210Z 20007KT 06/M00 A3014 RMK A01 T00571001  RH  067%=      5-min Rain = 0
KDVS 160215Z 20007KT 06/M01 A3014 RMK A01 T00561005  RH  066%=      5-min Rain = 0
KDVS 160220Z 21007KT 06/M01 A3015 RMK A01 T00561008  RH  064%=      5-min Rain = 0
KDVS 160225Z 21008KT 06/M01 A3015 RMK A01 T00551008  RH  065%=      5-min Rain = 0
KDVS 160230Z 21008KT 06/M01 A3015 RMK A01 T00551009  RH  064%=      5-min Rain = 0
KDVS 160235Z 22008KT 06/M01 A3015 RMK A01 T00551008  RH  065%=      5-min Rain = 0
KDVS 160240Z 22007KT 06/M01 A3015 RMK A01 T00561008  RH  064%=      5-min Rain = 0
KDVS 160245Z 24007KT 06/M01 A3015 RMK A01 T00561006  RH  065%=      5-min Rain = 0
KDVS 160250Z 23008KT 06/M01 A3015 RMK A01 T00561012  RH  062%=      5-min Rain = 0
KDVS 160255Z 23006KT 06/M02 A3015 RMK A01 T00601016  RH  059%=      5-min Rain = 0
KDVS 160300Z 23005KT 06/M01 A3015 RMK A01 T00571012  RH  062%=      5-min Rain = 0
KDVS 160305Z 23006KT 05/M01 A3015 RMK A01 T00541013  RH  063%=      5-min Rain = 0
KDVS 160310Z 23006KT 05/M01 A3015 RMK A01 T00521011  RH  064%=      5-min Rain = 0
KDVS 160315Z 23005KT 05/M01 A3015 RMK A01 T00501011  RH  065%=      5-min Rain = 0
KDVS 160320Z 23006KT 05/M01 A3015 RMK A01 T00491012  RH  066%=      5-min Rain = 0
KDVS 160325Z 22006KT 05/M01 A3015 RMK A01 T00471013  RH  066%=      5-min Rain = 0
KDVS 160330Z 22006KT 05/M01 A3015 RMK A01 T00461012  RH  067%=      5-min Rain = 0
KDVS 160335Z 22006KT 04/M01 A3015 RMK A01 T00431012  RH  068%=      5-min Rain = 0
KDVS 160340Z 22006KT 04/M01 A3015 RMK A01 T00421011  RH  069%=      5-min Rain = 0
KDVS 160345Z 23007KT 04/M01 A3015 RMK A01 T00421014  RH  067%=      5-min Rain = 0
KDVS 160350Z 23007KT 05/M02 A3015 RMK A01 T00461018  RH  064%=      5-min Rain = 0
KDVS 160355Z 24006KT 04/M02 A3015 RMK A01 T00431015  RH  066%=      5-min Rain = 0
KDVS 160400Z 23007KT 04/M01 A3015 RMK A01 T00411014  RH  068%=      5-min Rain = 0
KDVS 160405Z 23006KT 04/M01 A3015 RMK A01 T00401014  RH  068%=      5-min Rain = 0
KDVS 160410Z 23006KT 04/M01 A3015 RMK A01 T00381013  RH  070%=      5-min Rain = 0
KDVS 160415Z 23006KT 04/M01 A3015 RMK A01 T00371013  RH  071%=      5-min Rain = 0
KDVS 160420Z 22006KT 04/M02 A3015 RMK A01 T00371016  RH  069%=      5-min Rain = 0
KDVS 160425Z 22006KT 04/M01 A3015 RMK A01 T00351013  RH  071%=      5-min Rain = 0
KDVS 160430Z 22006KT 03/M01 A3015 RMK A01 T00341013  RH  072%=      5-min Rain = 0
KDVS 160435Z 22006KT 03/M01 A3015 RMK A01 T00321013  RH  073%=      5-min Rain = 0
KDVS 160440Z 22006KT 03/M01 A3015 RMK A01 T00311013  RH  073%=      5-min Rain = 0
KDVS 160445Z 23006KT 03/M01 A3015 RMK A01 T00311014  RH  073%=      5-min Rain = 0
KDVS 160450Z 23007KT 03/M02 A3015 RMK A01 T00301015  RH  073%=      5-min Rain = 0
KDVS 160455Z 23007KT 03/M02 A3015 RMK A01 T00291016  RH  073%=      5-min Rain = 0
KDVS 160500Z 24006KT 03/M02 A3015 RMK A01 T00271017  RH  074%=      5-min Rain = 0
KDVS 160505Z 25007KT 03/M02 A3015 RMK A01 T00261017  RH  074%=      5-min Rain = 0
KDVS 160510Z 26007KT 03/M02 A3015 RMK A01 T00281021  RH  071%=      5-min Rain = 0
KDVS 160515Z 27007KT 03/M02 A3015 RMK A01 T00301020  RH  070%=      5-min Rain = 0
KDVS 160520Z 27007KT 03/M02 A3014 RMK A01 T00281021  RH  071%=      5-min Rain = 0
KDVS 160525Z 27007KT 03/M02 A3014 RMK A01 T00251022  RH  072%=      5-min Rain = 0
KDVS 160530Z 27007KT 02/M02 A3014 RMK A01 T00241022  RH  072%=      5-min Rain = 0
KDVS 160535Z 27006KT 02/M02 A3014 RMK A01 T00221022  RH  073%=      5-min Rain = 0
KDVS 160540Z 27006KT 02/M02 A3014 RMK A01 T00211022  RH  074%=      5-min Rain = 0
KDVS 160545Z 27007KT 02/M02 A3014 RMK A01 T00211022  RH  074%=      5-min Rain = 0
KDVS 160550Z 27007KT 02/M02 A3014 RMK A01 T00221022  RH  073%=      5-min Rain = 0
KDVS 160555Z 26007KT 02/M02 A3014 RMK A01 T00231022  RH  073%=      5-min Rain = 0

Page generated in 0.0404 seconds.